Terminal Aerodrome Forecast
Issued by NWS Goodland, KS

Home | Current Version | Previous Version | Text Only | Print | Product List | Glossary On
Versions: 1 2 3 4 5 6 7 8 9 10 11 12 13 14 15 16 17
000
FTUS43 KGLD 020520
TAFGLD
TAF
KGLD 020520Z 0206/0306 02014G21KT P6SM VCSH BKN100
     FM020800 02010KT P6SM FEW050 BKN250
     FM021500 06009KT P6SM SCT070 BKN200
     FM021700 10008KT P6SM SCT060 BKN130
     FM022000 14009KT P6SM SCT060 SCT130 SCT200
     FM022300 08013G19KT P6SM VCSH BKN070
     FM030200 03020G28KT 6SM -RA BR OVC045
     FM030400 02019G27KT 5SM -RA BR OVC008
     FM030500 01016G24KT 5SM -RA OVC008=

USA.gov is the U.S. government's official web portal to all federal, state and local government web resources and services.